This is the latest recevied weather packets stored in our database for station/object K1WJY. If no packets are shown the sender has not sent any weather packets the latest 10 day(s).
| Time | Temp. | Humidity | Pressure | Rain* | Wind** | Luminosity | Snow |
|---|---|---|---|---|---|---|---|
| 1788030221 | 25° C | 44% | 1022 hPa | 0 mm | - | 502 W/m² | - |
| 1788029915 | 25.56° C | 44% | 1021.8 hPa | 0 mm | - | 518 W/m² | - |
| 1788029611 | 25° C | 44% | 1021.9 hPa | 0 mm | - | 530 W/m² | - |
| 1788029306 | 25.56° C | 43% | 1021.9 hPa | 0 mm | - | 538 W/m² | - |
| 1788029005 | 26.11° C | 43% | 1021.8 hPa | 0 mm | - | 553 W/m² | - |
| 1788028704 | 26.11° C | 42% | 1021.8 hPa | 0 mm | - | 567 W/m² | - |
| 1788028398 | 25.56° C | 44% | 1022 hPa | 0 mm | - | 572 W/m² | - |
| 1788028095 | 25° C | 44% | 1021.9 hPa | 0 mm | - | 581 W/m² | - |
| 1788027795 | 25° C | 45% | 1022.1 hPa | 0 mm | - | 577 W/m² | - |
| 1788027495 | 25.56° C | 44% | 1022.1 hPa | 0 mm | - | 582 W/m² | - |
| 1788027189 | 25.56° C | 44% | 1022.2 hPa | 0 mm | - | 594 W/m² | - |
| 1788026889 | 25.56° C | 44% | 1022.3 hPa | 0 mm | - | 613 W/m² | - |
| 1788026585 | 25° C | 46% | 1022.1 hPa | 0 mm | - | 608 W/m² | - |
| 1788026284 | 24.44° C | 47% | 1022.1 hPa | 0 mm | - | 612 W/m² | - |
| 1788025980 | 25.56° C | 46% | 1022.1 hPa | 0 mm | - | 621 W/m² | - |
| 1788025679 | 24.44° C | 48% | 1022.4 hPa | 0 mm | - | 622 W/m² | - |
| 1788025378 | 25.56° C | 44% | 1022.3 hPa | 0 mm | - | 633 W/m² | - |
| 1788025074 | 25.56° C | 46% | 1022.1 hPa | 0 mm | - | 645 W/m² | - |
| 1788024774 | 25.56° C | 44% | 1022.3 hPa | 0 mm | - | 659 W/m² | - |
| 1788024470 | 25° C | 47% | 1022.3 hPa | 0 mm | - | 653 W/m² | - |
| 1788024169 | 25.56° C | 46% | 1022 hPa | 0 mm | - | 663 W/m² | - |
| 1788023865 | 25° C | 45% | 1022.1 hPa | 0 mm | - | 655 W/m² | - |
| 1788023560 | 25° C | 45% | 1022.1 hPa | 0 mm | - | 651 W/m² | - |
| 1788023255 | 24.44° C | 47% | 1022.1 hPa | 0 mm | - | 652 W/m² | - |
| 1788022951 | 25° C | 47% | 1022.2 hPa | 0 mm | - | 628 W/m² | - |
* Rain latest hour (hover to see other rain measurements)
** Current wind speed in m/s (hover to see current wind gust speed)